sensor_id;sensor_type;location;lat;lon;timestamp;P1;durP1;ratioP1;P2;durP2;ratioP2
37355;SDS011;48747;50.250;18.848;2022-12-29T00:00:19;29.42;;;12.20;;
37355;SDS011;48747;50.250;18.848;2022-12-29T00:02:22;31.23;;;11.63;;
37355;SDS011;48747;50.250;18.848;2022-12-29T00:04:25;29.18;;;12.95;;
37355;SDS011;48747;50.250;18.848;2022-12-29T00:06:28;33.28;;;14.68;;
37355;SDS011;48747;50.250;18.848;2022-12-29T00:08:31;28.60;;;12.33;;
37355;SDS011;48747;50.250;18.848;2022-12-29T00:10:40;31.07;;;12.95;;
37355;SDS011;48747;50.250;18.848;2022-12-29T00:12:44;31.07;;;13.00;;
37355;SDS011;48747;50.250;18.848;2022-12-29T00:15:06;27.77;;;11.83;;
37355;SDS011;48747;50.250;18.848;2022-12-29T00:17:27;31.02;;;11.95;;
37355;SDS011;48747;50.250;18.848;2022-12-29T00:19:30;27.45;;;10.98;;
37355;SDS011;48747;50.250;18.848;2022-12-29T00:21:51;30.02;;;12.60;;
37355;SDS011;48747;50.250;18.848;2022-12-29T00:24:19;26.12;;;11.53;;
37355;SDS011;48747;50.250;18.848;2022-12-29T00:26:25;31.02;;;11.35;;
37355;SDS011;48747;50.250;18.848;2022-12-29T00:28:46;21.17;;;9.53;;
37355;SDS011;48747;50.250;18.848;2022-12-29T00:31:07;24.03;;;10.77;;
37355;SDS011;48747;50.250;18.848;2022-12-29T00:33:32;25.25;;;11.60;;
37355;SDS011;48747;50.250;18.848;2022-12-29T00:35:54;28.23;;;12.13;;
37355;SDS011;48747;50.250;18.848;2022-12-29T00:38:05;24.23;;;11.05;;
37355;SDS011;48747;50.250;18.848;2022-12-29T00:40:28;25.10;;;10.43;;
37355;SDS011;48747;50.250;18.848;2022-12-29T00:42:49;25.40;;;10.60;;
37355;SDS011;48747;50.250;18.848;2022-12-29T00:45:11;24.75;;;11.00;;
37355;SDS011;48747;50.250;18.848;2022-12-29T00:47:14;26.45;;;11.33;;
37355;SDS011;48747;50.250;18.848;2022-12-29T00:49:17;31.82;;;13.18;;
37355;SDS011;48747;50.250;18.848;2022-12-29T00:51:32;26.60;;;11.90;;
37355;SDS011;48747;50.250;18.848;2022-12-29T00:53:35;25.97;;;11.97;;
37355;SDS011;48747;50.250;18.848;2022-12-29T00:55:38;25.45;;;10.68;;
37355;SDS011;48747;50.250;18.848;2022-12-29T00:57:41;26.85;;;11.97;;
37355;SDS011;48747;50.250;18.848;2022-12-29T00:59:44;26.25;;;11.43;;
37355;SDS011;48747;50.250;18.848;2022-12-29T01:01:49;24.98;;;11.65;;
37355;SDS011;48747;50.250;18.848;2022-12-29T01:03:53;25.92;;;11.97;;
37355;SDS011;48747;50.250;18.848;2022-12-29T01:05:56;29.30;;;12.75;;
37355;SDS011;48747;50.250;18.848;2022-12-29T01:08:05;26.37;;;13.00;;
37355;SDS011;48747;50.250;18.848;2022-12-29T01:10:08;28.87;;;12.80;;
37355;SDS011;48747;50.250;18.848;2022-12-29T01:12:11;32.35;;;14.23;;
37355;SDS011;48747;50.250;18.848;2022-12-29T01:14:14;32.00;;;14.83;;
37355;SDS011;48747;50.250;18.848;2022-12-29T01:16:17;33.33;;;14.38;;
37355;SDS011;48747;50.250;18.848;2022-12-29T01:18:21;33.45;;;14.05;;
37355;SDS011;48747;50.250;18.848;2022-12-29T01:20:24;28.52;;;14.07;;
37355;SDS011;48747;50.250;18.848;2022-12-29T01:22:29;33.60;;;13.95;;
37355;SDS011;48747;50.250;18.848;2022-12-29T01:24:32;33.98;;;14.10;;
37355;SDS011;48747;50.250;18.848;2022-12-29T01:26:35;37.28;;;14.78;;
37355;SDS011;48747;50.250;18.848;2022-12-29T01:28:38;29.25;;;13.72;;
37355;SDS011;48747;50.250;18.848;2022-12-29T01:30:42;31.42;;;13.70;;
37355;SDS011;48747;50.250;18.848;2022-12-29T01:32:45;31.27;;;14.47;;
37355;SDS011;48747;50.250;18.848;2022-12-29T01:34:48;37.78;;;16.00;;
37355;SDS011;48747;50.250;18.848;2022-12-29T01:36:51;34.50;;;14.07;;
37355;SDS011;48747;50.250;18.848;2022-12-29T01:38:54;33.42;;;14.03;;
37355;SDS011;48747;50.250;18.848;2022-12-29T01:40:58;30.15;;;13.25;;
37355;SDS011;48747;50.250;18.848;2022-12-29T01:43:01;32.20;;;15.03;;
37355;SDS011;48747;50.250;18.848;2022-12-29T01:45:13;26.50;;;12.60;;
37355;SDS011;48747;50.250;18.848;2022-12-29T01:47:14;25.43;;;11.85;;
37355;SDS011;48747;50.250;18.848;2022-12-29T01:49:26;29.95;;;12.68;;
37355;SDS011;48747;50.250;18.848;2022-12-29T01:51:31;28.32;;;13.50;;
37355;SDS011;48747;50.250;18.848;2022-12-29T01:53:35;30.08;;;12.75;;
37355;SDS011;48747;50.250;18.848;2022-12-29T01:55:40;22.55;;;11.20;;
37355;SDS011;48747;50.250;18.848;2022-12-29T01:57:49;22.35;;;11.18;;
37355;SDS011;48747;50.250;18.848;2022-12-29T02:00:02;24.87;;;11.15;;
37355;SDS011;48747;50.250;18.848;2022-12-29T02:02:09;21.23;;;9.68;;
37355;SDS011;48747;50.250;18.848;2022-12-29T02:04:13;23.92;;;9.98;;
37355;SDS011;48747;50.250;18.848;2022-12-29T02:06:17;17.70;;;8.28;;
37355;SDS011;48747;50.250;18.848;2022-12-29T02:08:26;16.48;;;7.92;;
37355;SDS011;48747;50.250;18.848;2022-12-29T02:10:31;15.40;;;8.00;;
37355;SDS011;48747;50.250;18.848;2022-12-29T02:12:37;16.30;;;8.40;;
37355;SDS011;48747;50.250;18.848;2022-12-29T02:14:40;17.52;;;8.53;;
37355;SDS011;48747;50.250;18.848;2022-12-29T02:16:53;24.72;;;9.45;;
37355;SDS011;48747;50.250;18.848;2022-12-29T02:30:59;19.42;;;9.53;;
37355;SDS011;48747;50.250;18.848;2022-12-29T02:33:15;20.30;;;9.05;;
37355;SDS011;48747;50.250;18.848;2022-12-29T02:35:35;19.95;;;8.40;;
37355;SDS011;48747;50.250;18.848;2022-12-29T02:37:41;17.55;;;8.43;;
37355;SDS011;48747;50.250;18.848;2022-12-29T02:45:05;22.10;;;10.08;;
37355;SDS011;48747;50.250;18.848;2022-12-29T02:46:43;17.90;;;7.53;;
37355;SDS011;48747;50.250;18.848;2022-12-29T02:49:03;19.87;;;8.60;;
37355;SDS011;48747;50.250;18.848;2022-12-29T02:51:18;17.70;;;7.10;;
37355;SDS011;48747;50.250;18.848;2022-12-29T02:53:31;12.90;;;6.78;;
37355;SDS011;48747;50.250;18.848;2022-12-29T02:55:54;16.48;;;7.33;;
37355;SDS011;48747;50.250;18.848;2022-12-29T02:58:17;14.00;;;6.12;;
37355;SDS011;48747;50.250;18.848;2022-12-29T03:00:25;11.78;;;6.22;;
37355;SDS011;48747;50.250;18.848;2022-12-29T03:07:09;9.93;;;5.45;;
37355;SDS011;48747;50.250;18.848;2022-12-29T03:09:20;12.30;;;6.03;;
37355;SDS011;48747;50.250;18.848;2022-12-29T03:11:24;14.93;;;7.17;;
37355;SDS011;48747;50.250;18.848;2022-12-29T03:13:49;15.50;;;6.72;;
37355;SDS011;48747;50.250;18.848;2022-12-29T03:16:14;16.12;;;7.67;;
37355;SDS011;48747;50.250;18.848;2022-12-29T03:18:25;21.23;;;8.43;;
37355;SDS011;48747;50.250;18.848;2022-12-29T03:20:38;16.77;;;7.22;;
37355;SDS011;48747;50.250;18.848;2022-12-29T03:22:42;13.43;;;7.03;;
37355;SDS011;48747;50.250;18.848;2022-12-29T03:24:48;13.83;;;7.37;;
37355;SDS011;48747;50.250;18.848;2022-12-29T03:26:55;15.63;;;7.17;;
37355;SDS011;48747;50.250;18.848;2022-12-29T03:28:59;15.98;;;8.10;;
37355;SDS011;48747;50.250;18.848;2022-12-29T03:31:03;13.53;;;7.72;;
37355;SDS011;48747;50.250;18.848;2022-12-29T03:33:09;15.78;;;7.70;;
37355;SDS011;48747;50.250;18.848;2022-12-29T03:35:15;14.53;;;7.50;;
37355;SDS011;48747;50.250;18.848;2022-12-29T03:37:22;16.82;;;7.55;;
37355;SDS011;48747;50.250;18.848;2022-12-29T03:39:27;13.75;;;7.42;;
37355;SDS011;48747;50.250;18.848;2022-12-29T03:41:31;13.28;;;7.50;;
37355;SDS011;48747;50.250;18.848;2022-12-29T03:43:35;15.10;;;7.65;;
37355;SDS011;48747;50.250;18.848;2022-12-29T03:45:38;17.23;;;8.38;;
37355;SDS011;48747;50.250;18.848;2022-12-29T03:47:41;16.70;;;8.00;;
37355;SDS011;48747;50.250;18.848;2022-12-29T03:49:45;15.13;;;6.45;;
37355;SDS011;48747;50.250;18.848;2022-12-29T03:51:48;13.08;;;6.33;;
37355;SDS011;48747;50.250;18.848;2022-12-29T03:53:51;13.03;;;6.47;;
37355;SDS011;48747;50.250;18.848;2022-12-29T03:55:54;12.93;;;5.90;;
37355;SDS011;48747;50.250;18.848;2022-12-29T03:57:57;11.83;;;6.15;;
37355;SDS011;48747;50.250;18.848;2022-12-29T04:00:01;13.48;;;6.65;;
37355;SDS011;48747;50.250;18.848;2022-12-29T04:02:06;12.10;;;6.45;;
37355;SDS011;48747;50.250;18.848;2022-12-29T04:04:09;12.10;;;6.55;;
37355;SDS011;48747;50.250;18.848;2022-12-29T04:06:12;14.50;;;6.42;;
37355;SDS011;48747;50.250;18.848;2022-12-29T04:08:15;12.07;;;6.42;;
37355;SDS011;48747;50.250;18.848;2022-12-29T04:10:18;13.32;;;6.58;;
37355;SDS011;48747;50.250;18.848;2022-12-29T04:12:21;10.93;;;6.60;;
37355;SDS011;48747;50.250;18.848;2022-12-29T04:14:24;11.15;;;6.22;;
37355;SDS011;48747;50.250;18.848;2022-12-29T04:16:27;17.32;;;7.65;;
37355;SDS011;48747;50.250;18.848;2022-12-29T04:18:30;17.40;;;8.25;;
37355;SDS011;48747;50.250;18.848;2022-12-29T04:20:33;19.52;;;9.10;;
37355;SDS011;48747;50.250;18.848;2022-12-29T04:23:02;21.07;;;10.37;;
37355;SDS011;48747;50.250;18.848;2022-12-29T04:25:03;26.02;;;12.18;;
37355;SDS011;48747;50.250;18.848;2022-12-29T04:27:07;22.30;;;9.88;;
37355;SDS011;48747;50.250;18.848;2022-12-29T04:29:10;24.32;;;12.37;;
37355;SDS011;48747;50.250;18.848;2022-12-29T04:31:13;26.77;;;11.90;;
37355;SDS011;48747;50.250;18.848;2022-12-29T04:33:16;24.92;;;11.30;;
37355;SDS011;48747;50.250;18.848;2022-12-29T04:35:19;21.05;;;11.48;;
37355;SDS011;48747;50.250;18.848;2022-12-29T04:37:22;27.02;;;11.40;;
37355;SDS011;48747;50.250;18.848;2022-12-29T04:39:25;23.67;;;10.78;;
37355;SDS011;48747;50.250;18.848;2022-12-29T04:41:28;20.37;;;8.90;;
37355;SDS011;48747;50.250;18.848;2022-12-29T04:43:33;17.60;;;7.87;;
37355;SDS011;48747;50.250;18.848;2022-12-29T04:45:36;16.48;;;7.67;;
37355;SDS011;48747;50.250;18.848;2022-12-29T04:47:39;16.55;;;7.75;;
37355;SDS011;48747;50.250;18.848;2022-12-29T04:49:42;19.95;;;8.33;;
37355;SDS011;48747;50.250;18.848;2022-12-29T04:51:45;22.05;;;8.78;;
37355;SDS011;48747;50.250;18.848;2022-12-29T04:53:48;22.07;;;8.90;;
37355;SDS011;48747;50.250;18.848;2022-12-29T04:55:52;17.37;;;8.13;;
37355;SDS011;48747;50.250;18.848;2022-12-29T04:57:55;14.05;;;7.67;;
37355;SDS011;48747;50.250;18.848;2022-12-29T04:59:58;20.55;;;8.73;;
37355;SDS011;48747;50.250;18.848;2022-12-29T05:02:01;18.70;;;8.80;;
37355;SDS011;48747;50.250;18.848;2022-12-29T05:04:04;17.23;;;9.78;;
37355;SDS011;48747;50.250;18.848;2022-12-29T05:06:07;19.75;;;10.25;;
37355;SDS011;48747;50.250;18.848;2022-12-29T05:08:10;18.92;;;9.85;;
37355;SDS011;48747;50.250;18.848;2022-12-29T05:10:13;21.97;;;10.60;;
37355;SDS011;48747;50.250;18.848;2022-12-29T05:12:17;21.95;;;11.48;;
37355;SDS011;48747;50.250;18.848;2022-12-29T05:14:20;27.87;;;12.53;;
37355;SDS011;48747;50.250;18.848;2022-12-29T05:16:23;26.05;;;11.83;;
37355;SDS011;48747;50.250;18.848;2022-12-29T05:18:26;24.72;;;12.07;;
37355;SDS011;48747;50.250;18.848;2022-12-29T05:20:29;22.95;;;12.28;;
37355;SDS011;48747;50.250;18.848;2022-12-29T05:22:32;27.95;;;12.07;;
37355;SDS011;48747;50.250;18.848;2022-12-29T05:24:35;28.50;;;12.60;;
37355;SDS011;48747;50.250;18.848;2022-12-29T05:26:38;23.18;;;11.65;;
37355;SDS011;48747;50.250;18.848;2022-12-29T05:28:42;27.25;;;12.58;;
37355;SDS011;48747;50.250;18.848;2022-12-29T05:30:47;24.35;;;12.63;;
37355;SDS011;48747;50.250;18.848;2022-12-29T05:32:52;26.57;;;12.45;;
37355;SDS011;48747;50.250;18.848;2022-12-29T05:34:55;31.12;;;13.58;;
37355;SDS011;48747;50.250;18.848;2022-12-29T05:36:59;32.73;;;14.83;;
37355;SDS011;48747;50.250;18.848;2022-12-29T05:39:03;31.75;;;13.93;;
37355;SDS011;48747;50.250;18.848;2022-12-29T05:41:08;34.48;;;16.50;;
37355;SDS011;48747;50.250;18.848;2022-12-29T05:43:11;37.33;;;17.42;;
37355;SDS011;48747;50.250;18.848;2022-12-29T05:45:15;46.65;;;17.05;;
37355;SDS011;48747;50.250;18.848;2022-12-29T05:47:18;43.90;;;15.28;;
37355;SDS011;48747;50.250;18.848;2022-12-29T05:49:21;34.58;;;13.83;;
37355;SDS011;48747;50.250;18.848;2022-12-29T05:51:24;32.83;;;12.70;;
37355;SDS011;48747;50.250;18.848;2022-12-29T05:53:27;37.45;;;14.43;;
37355;SDS011;48747;50.250;18.848;2022-12-29T05:55:30;34.05;;;13.78;;
37355;SDS011;48747;50.250;18.848;2022-12-29T05:57:33;36.23;;;14.63;;
37355;SDS011;48747;50.250;18.848;2022-12-29T05:59:36;34.40;;;14.93;;
37355;SDS011;48747;50.250;18.848;2022-12-29T06:01:48;32.42;;;13.15;;
37355;SDS011;48747;50.250;18.848;2022-12-29T06:03:47;34.38;;;14.73;;
37355;SDS011;48747;50.250;18.848;2022-12-29T06:05:50;37.48;;;14.43;;
37355;SDS011;48747;50.250;18.848;2022-12-29T06:07:53;36.48;;;14.58;;
37355;SDS011;48747;50.250;18.848;2022-12-29T06:09:56;39.55;;;14.73;;
37355;SDS011;48747;50.250;18.848;2022-12-29T06:11:59;32.78;;;14.15;;
37355;SDS011;48747;50.250;18.848;2022-12-29T06:14:02;31.02;;;12.80;;
37355;SDS011;48747;50.250;18.848;2022-12-29T06:16:05;31.37;;;13.43;;
37355;SDS011;48747;50.250;18.848;2022-12-29T06:18:08;36.05;;;13.83;;
37355;SDS011;48747;50.250;18.848;2022-12-29T06:20:12;32.15;;;14.50;;
37355;SDS011;48747;50.250;18.848;2022-12-29T06:22:15;31.62;;;13.65;;
37355;SDS011;48747;50.250;18.848;2022-12-29T06:24:18;31.23;;;14.33;;
37355;SDS011;48747;50.250;18.848;2022-12-29T06:26:21;34.18;;;14.45;;
37355;SDS011;48747;50.250;18.848;2022-12-29T06:28:24;26.37;;;11.90;;
37355;SDS011;48747;50.250;18.848;2022-12-29T06:30:27;23.60;;;10.20;;
37355;SDS011;48747;50.250;18.848;2022-12-29T06:32:30;22.10;;;9.50;;
37355;SDS011;48747;50.250;18.848;2022-12-29T06:34:33;18.92;;;9.35;;
37355;SDS011;48747;50.250;18.848;2022-12-29T06:36:37;22.73;;;10.35;;
37355;SDS011;48747;50.250;18.848;2022-12-29T06:38:40;22.40;;;10.40;;
37355;SDS011;48747;50.250;18.848;2022-12-29T06:40:43;23.52;;;9.48;;
37355;SDS011;48747;50.250;18.848;2022-12-29T06:42:46;25.57;;;10.00;;
37355;SDS011;48747;50.250;18.848;2022-12-29T06:44:52;22.37;;;9.78;;
37355;SDS011;48747;50.250;18.848;2022-12-29T06:46:54;24.47;;;11.05;;
37355;SDS011;48747;50.250;18.848;2022-12-29T06:48:58;26.50;;;12.53;;
37355;SDS011;48747;50.250;18.848;2022-12-29T06:51:03;23.70;;;11.30;;
37355;SDS011;48747;50.250;18.848;2022-12-29T06:53:06;23.90;;;10.60;;
37355;SDS011;48747;50.250;18.848;2022-12-29T06:55:09;20.80;;;9.68;;
37355;SDS011;48747;50.250;18.848;2022-12-29T06:57:12;21.57;;;10.13;;
37355;SDS011;48747;50.250;18.848;2022-12-29T06:59:15;20.55;;;9.58;;
37355;SDS011;48747;50.250;18.848;2022-12-29T07:01:19;21.12;;;9.50;;
37355;SDS011;48747;50.250;18.848;2022-12-29T07:03:22;23.95;;;9.45;;
37355;SDS011;48747;50.250;18.848;2022-12-29T07:05:26;18.65;;;9.18;;
37355;SDS011;48747;50.250;18.848;2022-12-29T07:07:29;23.45;;;10.00;;
37355;SDS011;48747;50.250;18.848;2022-12-29T07:09:33;17.92;;;9.43;;
37355;SDS011;48747;50.250;18.848;2022-12-29T07:11:36;22.73;;;9.98;;
37355;SDS011;48747;50.250;18.848;2022-12-29T07:13:39;22.30;;;8.95;;
37355;SDS011;48747;50.250;18.848;2022-12-29T07:15:42;18.67;;;10.05;;
37355;SDS011;48747;50.250;18.848;2022-12-29T07:17:45;26.23;;;12.07;;
37355;SDS011;48747;50.250;18.848;2022-12-29T07:19:50;17.82;;;9.00;;
37355;SDS011;48747;50.250;18.848;2022-12-29T07:21:54;19.12;;;9.05;;
37355;SDS011;48747;50.250;18.848;2022-12-29T07:23:57;18.37;;;9.00;;
37355;SDS011;48747;50.250;18.848;2022-12-29T07:26:01;18.27;;;9.33;;
37355;SDS011;48747;50.250;18.848;2022-12-29T07:28:05;18.00;;;8.90;;
37355;SDS011;48747;50.250;18.848;2022-12-29T07:30:08;20.37;;;9.70;;
37355;SDS011;48747;50.250;18.848;2022-12-29T07:32:11;22.67;;;10.30;;
37355;SDS011;48747;50.250;18.848;2022-12-29T07:34:15;25.17;;;10.75;;
37355;SDS011;48747;50.250;18.848;2022-12-29T07:36:18;21.93;;;9.75;;
37355;SDS011;48747;50.250;18.848;2022-12-29T07:38:21;17.98;;;9.45;;
37355;SDS011;48747;50.250;18.848;2022-12-29T07:40:24;18.73;;;8.30;;
37355;SDS011;48747;50.250;18.848;2022-12-29T07:42:27;17.90;;;7.15;;
37355;SDS011;48747;50.250;18.848;2022-12-29T07:44:30;18.45;;;7.97;;
37355;SDS011;48747;50.250;18.848;2022-12-29T07:46:33;17.87;;;8.03;;
37355;SDS011;48747;50.250;18.848;2022-12-29T07:48:37;19.07;;;8.55;;
37355;SDS011;48747;50.250;18.848;2022-12-29T07:50:41;21.62;;;8.73;;
37355;SDS011;48747;50.250;18.848;2022-12-29T07:52:44;17.73;;;7.72;;
37355;SDS011;48747;50.250;18.848;2022-12-29T07:54:48;17.12;;;8.55;;
37355;SDS011;48747;50.250;18.848;2022-12-29T07:56:51;17.42;;;8.35;;
37355;SDS011;48747;50.250;18.848;2022-12-29T07:58:55;15.63;;;7.50;;
37355;SDS011;48747;50.250;18.848;2022-12-29T08:00:58;16.62;;;8.00;;
37355;SDS011;48747;50.250;18.848;2022-12-29T08:03:01;18.00;;;9.38;;
37355;SDS011;48747;50.250;18.848;2022-12-29T08:05:04;19.37;;;9.85;;
37355;SDS011;48747;50.250;18.848;2022-12-29T08:07:08;21.80;;;10.82;;
37355;SDS011;48747;50.250;18.848;2022-12-29T08:09:11;24.72;;;11.65;;
37355;SDS011;48747;50.250;18.848;2022-12-29T08:11:14;22.55;;;10.40;;
37355;SDS011;48747;50.250;18.848;2022-12-29T08:13:17;29.80;;;11.97;;
37355;SDS011;48747;50.250;18.848;2022-12-29T08:15:20;23.40;;;10.35;;
37355;SDS011;48747;50.250;18.848;2022-12-29T08:17:23;20.15;;;9.28;;
37355;SDS011;48747;50.250;18.848;2022-12-29T08:19:26;21.62;;;9.43;;
37355;SDS011;48747;50.250;18.848;2022-12-29T08:21:29;17.45;;;9.13;;
37355;SDS011;48747;50.250;18.848;2022-12-29T08:23:33;21.68;;;9.93;;
37355;SDS011;48747;50.250;18.848;2022-12-29T08:25:36;21.02;;;9.73;;
37355;SDS011;48747;50.250;18.848;2022-12-29T08:27:39;21.37;;;9.33;;
37355;SDS011;48747;50.250;18.848;2022-12-29T08:29:42;26.85;;;10.15;;
37355;SDS011;48747;50.250;18.848;2022-12-29T08:31:45;25.17;;;10.65;;
37355;SDS011;48747;50.250;18.848;2022-12-29T08:33:51;23.57;;;11.38;;
37355;SDS011;48747;50.250;18.848;2022-12-29T08:36:01;21.82;;;9.65;;
37355;SDS011;48747;50.250;18.848;2022-12-29T08:38:05;25.65;;;10.95;;
37355;SDS011;48747;50.250;18.848;2022-12-29T08:40:08;23.15;;;10.85;;
37355;SDS011;48747;50.250;18.848;2022-12-29T08:42:12;26.90;;;11.30;;
37355;SDS011;48747;50.250;18.848;2022-12-29T08:44:15;27.70;;;12.80;;
37355;SDS011;48747;50.250;18.848;2022-12-29T08:46:18;24.32;;;11.40;;
37355;SDS011;48747;50.250;18.848;2022-12-29T08:48:21;25.80;;;11.20;;
37355;SDS011;48747;50.250;18.848;2022-12-29T08:50:24;28.10;;;12.43;;
37355;SDS011;48747;50.250;18.848;2022-12-29T08:52:27;29.65;;;12.05;;
37355;SDS011;48747;50.250;18.848;2022-12-29T08:54:30;27.52;;;13.50;;
37355;SDS011;48747;50.250;18.848;2022-12-29T08:56:33;21.25;;;11.05;;
37355;SDS011;48747;50.250;18.848;2022-12-29T08:58:37;22.65;;;10.45;;
37355;SDS011;48747;50.250;18.848;2022-12-29T09:00:40;26.15;;;12.88;;
37355;SDS011;48747;50.250;18.848;2022-12-29T09:02:45;64.95;;;26.12;;
37355;SDS011;48747;50.250;18.848;2022-12-29T09:04:49;37.08;;;15.45;;
37355;SDS011;48747;50.250;18.848;2022-12-29T09:06:53;79.58;;;26.45;;
37355;SDS011;48747;50.250;18.848;2022-12-29T09:08:56;77.03;;;27.42;;
37355;SDS011;48747;50.250;18.848;2022-12-29T09:11:06;59.10;;;20.32;;
37355;SDS011;48747;50.250;18.848;2022-12-29T09:13:14;48.70;;;19.20;;
37355;SDS011;48747;50.250;18.848;2022-12-29T09:15:18;57.78;;;20.02;;
37355;SDS011;48747;50.250;18.848;2022-12-29T09:17:21;54.10;;;19.62;;
37355;SDS011;48747;50.250;18.848;2022-12-29T09:19:44;30.08;;;12.95;;
37355;SDS011;48747;50.250;18.848;2022-12-29T09:21:47;33.42;;;13.68;;
37355;SDS011;48747;50.250;18.848;2022-12-29T09:23:50;38.53;;;15.32;;
37355;SDS011;48747;50.250;18.848;2022-12-29T09:25:53;22.77;;;10.32;;
37355;SDS011;48747;50.250;18.848;2022-12-29T09:27:57;20.25;;;9.28;;
37355;SDS011;48747;50.250;18.848;2022-12-29T09:30:02;23.12;;;9.30;;
37355;SDS011;48747;50.250;18.848;2022-12-29T09:32:09;21.40;;;9.70;;
37355;SDS011;48747;50.250;18.848;2022-12-29T09:34:12;22.05;;;10.30;;
37355;SDS011;48747;50.250;18.848;2022-12-29T09:36:15;25.77;;;11.48;;
37355;SDS011;48747;50.250;18.848;2022-12-29T09:38:18;24.80;;;12.30;;
37355;SDS011;48747;50.250;18.848;2022-12-29T09:40:31;23.30;;;11.93;;
37355;SDS011;48747;50.250;18.848;2022-12-29T09:42:38;21.77;;;10.82;;
37355;SDS011;48747;50.250;18.848;2022-12-29T09:45:00;23.90;;;12.63;;
37355;SDS011;48747;50.250;18.848;2022-12-29T09:47:05;26.20;;;13.10;;
37355;SDS011;48747;50.250;18.848;2022-12-29T09:51:34;29.45;;;14.20;;
37355;SDS011;48747;50.250;18.848;2022-12-29T09:53:43;29.48;;;13.98;;
37355;SDS011;48747;50.250;18.848;2022-12-29T09:55:53;23.42;;;12.07;;
37355;SDS011;48747;50.250;18.848;2022-12-29T09:57:59;30.20;;;13.98;;
37355;SDS011;48747;50.250;18.848;2022-12-29T10:00:14;32.30;;;13.93;;
37355;SDS011;48747;50.250;18.848;2022-12-29T10:04:43;34.80;;;16.30;;
37355;SDS011;48747;50.250;18.848;2022-12-29T10:06:49;31.40;;;14.33;;
37355;SDS011;48747;50.250;18.848;2022-12-29T10:14:02;20.62;;;9.98;;
37355;SDS011;48747;50.250;18.848;2022-12-29T10:23:59;23.85;;;10.30;;
37355;SDS011;48747;50.250;18.848;2022-12-29T10:26:07;18.95;;;10.00;;
37355;SDS011;48747;50.250;18.848;2022-12-29T10:28:21;17.77;;;9.55;;
37355;SDS011;48747;50.250;18.848;2022-12-29T10:30:26;19.10;;;10.03;;
37355;SDS011;48747;50.250;18.848;2022-12-29T10:32:34;21.50;;;10.40;;
37355;SDS011;48747;50.250;18.848;2022-12-29T10:36:48;27.80;;;13.10;;
37355;SDS011;48747;50.250;18.848;2022-12-29T10:45:49;26.93;;;11.05;;
37355;SDS011;48747;50.250;18.848;2022-12-29T10:48:00;27.05;;;13.00;;
37355;SDS011;48747;50.250;18.848;2022-12-29T10:50:04;47.38;;;22.82;;
37355;SDS011;48747;50.250;18.848;2022-12-29T10:52:09;40.98;;;21.50;;
37355;SDS011;48747;50.250;18.848;2022-12-29T10:56:39;31.07;;;15.38;;
37355;SDS011;48747;50.250;18.848;2022-12-29T10:58:44;18.10;;;9.48;;
37355;SDS011;48747;50.250;18.848;2022-12-29T11:00:51;25.40;;;10.88;;
37355;SDS011;48747;50.250;18.848;2022-12-29T11:05:23;42.93;;;14.43;;
37355;SDS011;48747;50.250;18.848;2022-12-29T11:07:42;28.98;;;12.20;;
37355;SDS011;48747;50.250;18.848;2022-12-29T11:09:46;35.92;;;14.15;;
37355;SDS011;48747;50.250;18.848;2022-12-29T11:11:50;49.00;;;17.45;;
37355;SDS011;48747;50.250;18.848;2022-12-29T11:13:58;38.85;;;15.25;;
37355;SDS011;48747;50.250;18.848;2022-12-29T11:16:03;28.10;;;13.30;;
37355;SDS011;48747;50.250;18.848;2022-12-29T11:18:54;30.77;;;12.58;;
37355;SDS011;48747;50.250;18.848;2022-12-29T11:20:36;28.52;;;12.53;;
37355;SDS011;48747;50.250;18.848;2022-12-29T11:22:40;30.20;;;13.70;;
37355;SDS011;48747;50.250;18.848;2022-12-29T11:24:47;26.45;;;12.28;;
37355;SDS011;48747;50.250;18.848;2022-12-29T11:26:55;25.15;;;12.50;;
37355;SDS011;48747;50.250;18.848;2022-12-29T11:31:07;25.62;;;12.90;;
37355;SDS011;48747;50.250;18.848;2022-12-29T11:33:16;21.65;;;10.23;;
37355;SDS011;48747;50.250;18.848;2022-12-29T11:35:50;22.87;;;10.65;;
37355;SDS011;48747;50.250;18.848;2022-12-29T11:37:43;21.12;;;10.30;;
37355;SDS011;48747;50.250;18.848;2022-12-29T11:40:20;17.82;;;8.73;;
37355;SDS011;48747;50.250;18.848;2022-12-29T11:42:03;19.90;;;9.85;;
37355;SDS011;48747;50.250;18.848;2022-12-29T11:44:10;16.85;;;9.00;;
37355;SDS011;48747;50.250;18.848;2022-12-29T11:46:22;14.63;;;7.85;;
37355;SDS011;48747;50.250;18.848;2022-12-29T11:48:22;16.30;;;8.73;;
37355;SDS011;48747;50.250;18.848;2022-12-29T11:50:28;20.52;;;9.30;;
37355;SDS011;48747;50.250;18.848;2022-12-29T11:52:35;17.00;;;8.85;;
37355;SDS011;48747;50.250;18.848;2022-12-29T11:54:43;23.73;;;11.05;;
37355;SDS011;48747;50.250;18.848;2022-12-29T11:56:46;19.60;;;10.58;;
37355;SDS011;48747;50.250;18.848;2022-12-29T11:58:52;17.05;;;9.40;;
37355;SDS011;48747;50.250;18.848;2022-12-29T12:01:02;19.20;;;9.83;;
37355;SDS011;48747;50.250;18.848;2022-12-29T12:03:12;20.70;;;10.32;;
37355;SDS011;48747;50.250;18.848;2022-12-29T12:05:21;21.25;;;11.43;;
37355;SDS011;48747;50.250;18.848;2022-12-29T12:07:41;23.55;;;11.48;;
37355;SDS011;48747;50.250;18.848;2022-12-29T12:12:00;16.40;;;9.35;;
37355;SDS011;48747;50.250;18.848;2022-12-29T12:14:12;17.45;;;10.25;;
37355;SDS011;48747;50.250;18.848;2022-12-29T12:16:55;16.48;;;9.35;;
37355;SDS011;48747;50.250;18.848;2022-12-29T12:18:44;17.15;;;8.45;;
37355;SDS011;48747;50.250;18.848;2022-12-29T12:20:54;15.28;;;7.85;;
37355;SDS011;48747;50.250;18.848;2022-12-29T12:25:25;17.85;;;9.38;;
37355;SDS011;48747;50.250;18.848;2022-12-29T12:27:31;18.65;;;10.18;;
37355;SDS011;48747;50.250;18.848;2022-12-29T12:29:45;17.95;;;8.53;;
37355;SDS011;48747;50.250;18.848;2022-12-29T12:34:01;19.32;;;9.63;;
37355;SDS011;48747;50.250;18.848;2022-12-29T12:36:14;24.40;;;10.53;;
37355;SDS011;48747;50.250;18.848;2022-12-29T12:38:18;23.15;;;11.08;;
37355;SDS011;48747;50.250;18.848;2022-12-29T12:40:30;24.40;;;11.15;;
37355;SDS011;48747;50.250;18.848;2022-12-29T12:42:55;29.20;;;11.65;;
37355;SDS011;48747;50.250;18.848;2022-12-29T13:03:52;34.38;;;15.83;;
37355;SDS011;48747;50.250;18.848;2022-12-29T13:08:40;35.00;;;15.85;;
37355;SDS011;48747;50.250;18.848;2022-12-29T13:10:48;27.37;;;13.72;;
37355;SDS011;48747;50.250;18.848;2022-12-29T13:12:55;20.62;;;10.60;;
37355;SDS011;48747;50.250;18.848;2022-12-29T13:17:19;22.95;;;10.75;;
37355;SDS011;48747;50.250;18.848;2022-12-29T13:19:43;23.18;;;12.33;;
37355;SDS011;48747;50.250;18.848;2022-12-29T13:26:47;23.45;;;12.53;;
37355;SDS011;48747;50.250;18.848;2022-12-29T13:31:16;31.15;;;17.12;;
37355;SDS011;48747;50.250;18.848;2022-12-29T13:35:53;27.00;;;13.30;;
37355;SDS011;48747;50.250;18.848;2022-12-29T13:40:21;42.62;;;17.80;;
37355;SDS011;48747;50.250;18.848;2022-12-29T13:42:25;44.65;;;18.62;;
37355;SDS011;48747;50.250;18.848;2022-12-29T13:44:42;42.88;;;18.48;;
37355;SDS011;48747;50.250;18.848;2022-12-29T13:46:43;37.80;;;17.50;;
37355;SDS011;48747;50.250;18.848;2022-12-29T13:48:51;34.15;;;16.65;;